N707VM CYEG-CYZF
Flight info
| Callsign | N707VM |
|---|---|
| Flight time | N/A |
| Altitude | 45000 |
| Route | GABET1 GABET DCT MOOTO DCT GOREK DCT |
| Aircraft | C700/M-SBDGHM1RWXY/LB2 |
Departure
| Time | 2026-05-05 21:44 |
|---|---|
| Airport | Edmonton International Airport (CYEG) |
Arrival
| Time | N/A |
|---|---|
| Airport | Yellowknife International Airport (CYZF) |
| Time | Latitude | Longitude | Altitude | Speed | Heading |
|---|---|---|---|---|---|
| 2026-05-05 21:19 | 53.31098 | -113.58586 | 2364 ft | 0 kts | 52° |
| 2026-05-05 21:37 | 53.31093 | -113.58598 | 2345 ft | 4 kts | 46° |
| 2026-05-05 21:37 | 53.31073 | -113.58620 | 2345 ft | 4 kts | 357° |
| 2026-05-05 21:37 | 53.31058 | -113.58610 | 2345 ft | 0 kts | 303° |
| 2026-05-05 21:40 | 53.31071 | -113.58641 | 2345 ft | 6 kts | 301° |
| 2026-05-05 21:40 | 53.31064 | -113.58718 | 2345 ft | 9 kts | 248° |
| 2026-05-05 21:40 | 53.31018 | -113.58790 | 2345 ft | 11 kts | 188° |
| 2026-05-05 21:41 | 53.30936 | -113.58790 | 2346 ft | 13 kts | 178° |
| 2026-05-05 21:41 | 53.30859 | -113.58847 | 2346 ft | 14 kts | 256° |
| 2026-05-05 21:41 | 53.30848 | -113.59026 | 2346 ft | 17 kts | 264° |
| 2026-05-05 21:41 | 53.30836 | -113.59242 | 2345 ft | 20 kts | 265° |
| 2026-05-05 21:42 | 53.30836 | -113.59429 | 2344 ft | 5 kts | 301° |
| 2026-05-05 21:42 | 53.30857 | -113.59461 | 2343 ft | 0 kts | 315° |
| 2026-05-05 21:43 | 53.30869 | -113.59483 | 2342 ft | 8 kts | 315° |
| 2026-05-05 21:43 | 53.30930 | -113.59564 | 2342 ft | 12 kts | 354° |
| 2026-05-05 21:43 | 53.30972 | -113.59527 | 2343 ft | 0 kts | 35° |
| 2026-05-05 21:44 | 53.31065 | -113.59419 | 2342 ft | 55 kts | 34° |
| 2026-05-05 21:44 | 53.31639 | -113.58762 | 2388 ft | 141 kts | 34° |
| 2026-05-05 21:44 | 53.32627 | -113.57633 | 2969 ft | 197 kts | 34° |
| 2026-05-05 21:44 | 53.33760 | -113.56318 | 3914 ft | 195 kts | 33° |
| 2026-05-05 21:45 | 53.34882 | -113.54988 | 4699 ft | 200 kts | 33° |
| 2026-05-05 21:45 | 53.36066 | -113.53693 | 5485 ft | 211 kts | 20° |
| 2026-05-05 21:45 | 53.37572 | -113.53698 | 6412 ft | 237 kts | 341° |
| 2026-05-05 21:45 | 53.39132 | -113.54917 | 7575 ft | 253 kts | 335° |
| 2026-05-05 21:46 | 53.40793 | -113.56055 | 8802 ft | 262 kts | 342° |
| 2026-05-05 21:46 | 53.42593 | -113.56741 | 10112 ft | 266 kts | 351° |
| 2026-05-05 21:46 | 53.44453 | -113.57164 | 11375 ft | 282 kts | 352° |
| 2026-05-05 21:46 | 53.46433 | -113.57695 | 12811 ft | 290 kts | 350° |
| 2026-05-05 21:47 | 53.48423 | -113.58324 | 14316 ft | 290 kts | 350° |
| 2026-05-05 21:47 | 53.50403 | -113.58941 | 15746 ft | 287 kts | 351° |
| 2026-05-05 21:47 | 53.52353 | -113.59521 | 17280 ft | 281 kts | 352° |
| 2026-05-05 21:47 | 53.54264 | -113.60087 | 18848 ft | 277 kts | 352° |
| 2026-05-05 21:48 | 53.56141 | -113.60651 | 20298 ft | 272 kts | 352° |
| 2026-05-05 21:48 | 53.57974 | -113.61206 | 21768 ft | 263 kts | 352° |
| 2026-05-05 21:48 | 53.59755 | -113.61743 | 23251 ft | 255 kts | 352° |
| 2026-05-05 21:48 | 53.61474 | -113.62260 | 24556 ft | 247 kts | 351° |
| 2026-05-05 21:49 | 53.63249 | -113.62792 | 24932 ft | 273 kts | 351° |
| 2026-05-05 21:49 | 53.65196 | -113.63377 | 25077 ft | 301 kts | 351° |
| 2026-05-05 21:49 | 53.67314 | -113.64019 | 25687 ft | 311 kts | 351° |
| 2026-05-05 21:49 | 53.69456 | -113.64671 | 26631 ft | 314 kts | 351° |
| 2026-05-05 21:50 | 53.71622 | -113.65327 | 27485 ft | 318 kts | 351° |
| 2026-05-05 21:50 | 53.73814 | -113.65990 | 28357 ft | 321 kts | 351° |
| 2026-05-05 21:50 | 53.76030 | -113.66663 | 29219 ft | 325 kts | 351° |
| 2026-05-05 21:50 | 53.78275 | -113.67345 | 30052 ft | 329 kts | 350° |
| 2026-05-05 21:51 | 53.80548 | -113.68037 | 30800 ft | 333 kts | 350° |
| 2026-05-05 21:51 | 53.82809 | -113.68726 | 31535 ft | 335 kts | 350° |
| 2026-05-05 21:51 | 53.85115 | -113.69428 | 32237 ft | 338 kts | 350° |
| 2026-05-05 21:51 | 53.87445 | -113.70064 | 32916 ft | 340 kts | 353° |
| 2026-05-05 21:52 | 53.92158 | -113.70420 | 34755 ft | 332 kts | 356° |
| 2026-05-05 21:52 | 53.94467 | -113.70546 | 35289 ft | 334 kts | 356° |
| 2026-05-05 21:52 | 53.96807 | -113.70673 | 35768 ft | 337 kts | 356° |
| 2026-05-05 21:53 | 53.99155 | -113.70780 | 36331 ft | 337 kts | 357° |
| 2026-05-05 21:53 | 54.01478 | -113.70884 | 36845 ft | 338 kts | 357° |
| 2026-05-05 21:53 | 54.03833 | -113.70997 | 37336 ft | 339 kts | 357° |
| 2026-05-05 21:53 | 54.06202 | -113.71113 | 37801 ft | 339 kts | 358° |
| 2026-05-05 21:54 | 54.08566 | -113.71226 | 38250 ft | 340 kts | 358° |
| 2026-05-05 21:54 | 54.10941 | -113.71339 | 38679 ft | 341 kts | 358° |
| 2026-05-05 21:54 | 54.13315 | -113.71453 | 39057 ft | 341 kts | 358° |
| 2026-05-05 21:54 | 54.14888 | -113.71528 | 39242 ft | 342 kts | 358° |
| 2026-05-05 21:55 | 54.17278 | -113.71643 | 39473 ft | 345 kts | 358° |
| 2026-05-05 21:55 | 54.20475 | -113.71797 | 39799 ft | 347 kts | 358° |
| 2026-05-05 21:55 | 54.22082 | -113.71874 | 39934 ft | 349 kts | 358° |
| 2026-05-05 21:55 | 54.24515 | -113.71991 | 40201 ft | 350 kts | 358° |
| 2026-05-05 21:56 | 54.26957 | -113.72110 | 40417 ft | 352 kts | 358° |
| 2026-05-05 21:56 | 54.29416 | -113.72228 | 40645 ft | 354 kts | 358° |
| 2026-05-05 21:56 | 54.31891 | -113.72348 | 40860 ft | 356 kts | 358° |
| 2026-05-05 21:56 | 54.34372 | -113.72468 | 41086 ft | 358 kts | 357° |
| 2026-05-05 21:57 | 54.36838 | -113.72587 | 41299 ft | 360 kts | 357° |
| 2026-05-05 21:57 | 54.39349 | -113.72709 | 41506 ft | 361 kts | 357° |
| 2026-05-05 21:57 | 54.41869 | -113.72832 | 41719 ft | 363 kts | 357° |
| 2026-05-05 21:57 | 54.44403 | -113.72955 | 41924 ft | 365 kts | 357° |
| 2026-05-05 21:58 | 54.46945 | -113.73079 | 42130 ft | 366 kts | 357° |
| 2026-05-05 21:58 | 54.49507 | -113.73204 | 42304 ft | 368 kts | 357° |
| 2026-05-05 21:58 | 54.52090 | -113.73330 | 42481 ft | 370 kts | 357° |
| 2026-05-05 21:58 | 54.54649 | -113.73455 | 42723 ft | 372 kts | 357° |
| 2026-05-05 21:59 | 54.57256 | -113.73583 | 42806 ft | 376 kts | 357° |
| 2026-05-05 21:59 | 54.59880 | -113.73711 | 43021 ft | 377 kts | 357° |
| 2026-05-05 21:59 | 54.62510 | -113.73840 | 43216 ft | 379 kts | 357° |
| 2026-05-05 22:00 | 54.67857 | -113.74104 | 43268 ft | 390 kts | 357° |
| 2026-05-05 22:00 | 54.73326 | -113.74374 | 43277 ft | 400 kts | 357° |
| 2026-05-05 22:01 | 54.78970 | -113.74652 | 43272 ft | 411 kts | 357° |
| 2026-05-05 22:01 | 54.84747 | -113.74939 | 43271 ft | 419 kts | 357° |
| 2026-05-05 22:02 | 54.90590 | -113.75229 | 43269 ft | 418 kts | 357° |
| 2026-05-05 22:02 | 54.96379 | -113.75517 | 43266 ft | 414 kts | 357° |
| 2026-05-05 22:03 | 55.02118 | -113.75804 | 43263 ft | 411 kts | 357° |
| 2026-05-05 22:03 | 55.07844 | -113.76092 | 43264 ft | 412 kts | 357° |
| 2026-05-05 22:04 | 55.13539 | -113.76378 | 43266 ft | 412 kts | 357° |
| 2026-05-05 22:04 | 55.19284 | -113.76668 | 43261 ft | 413 kts | 357° |
| 2026-05-05 22:05 | 55.25065 | -113.76961 | 43262 ft | 415 kts | 357° |
| 2026-05-05 22:05 | 55.30847 | -113.77254 | 43258 ft | 416 kts | 357° |
| 2026-05-05 22:06 | 55.36612 | -113.77547 | 43251 ft | 416 kts | 357° |
| 2026-05-05 22:06 | 55.42417 | -113.77844 | 43253 ft | 417 kts | 357° |
| 2026-05-05 22:07 | 55.48203 | -113.78140 | 43251 ft | 417 kts | 357° |
| 2026-05-05 22:07 | 55.54036 | -113.78439 | 43249 ft | 418 kts | 357° |
| 2026-05-05 22:08 | 55.59820 | -113.78737 | 43245 ft | 418 kts | 357° |
| 2026-05-05 22:08 | 55.65625 | -113.79036 | 43247 ft | 418 kts | 357° |
| 2026-05-05 22:09 | 55.71449 | -113.79339 | 43245 ft | 417 kts | 357° |
| 2026-05-05 22:09 | 55.77215 | -113.79638 | 43242 ft | 417 kts | 357° |
| 2026-05-05 22:10 | 55.83003 | -113.79940 | 43238 ft | 416 kts | 357° |
| 2026-05-05 22:10 | 55.88798 | -113.80242 | 43236 ft | 415 kts | 357° |
| 2026-05-05 22:11 | 55.94556 | -113.80545 | 43240 ft | 417 kts | 357° |
| 2026-05-05 22:11 | 56.00353 | -113.80849 | 43243 ft | 419 kts | 357° |
| 2026-05-05 22:12 | 56.06208 | -113.81158 | 43241 ft | 420 kts | 357° |
| 2026-05-05 22:12 | 56.12045 | -113.81467 | 43244 ft | 422 kts | 357° |
| 2026-05-05 22:13 | 56.17931 | -113.81779 | 43220 ft | 420 kts | 357° |
| 2026-05-05 22:13 | 56.23744 | -113.82088 | 43221 ft | 418 kts | 356° |
| 2026-05-05 22:14 | 56.29548 | -113.82398 | 43215 ft | 416 kts | 356° |
| 2026-05-05 22:14 | 56.35350 | -113.82709 | 43218 ft | 417 kts | 356° |
| 2026-05-05 22:15 | 56.41133 | -113.83019 | 43211 ft | 419 kts | 356° |
| 2026-05-05 22:15 | 56.47034 | -113.83337 | 43214 ft | 421 kts | 356° |
| 2026-05-05 22:16 | 56.52846 | -113.83651 | 43210 ft | 422 kts | 356° |
| 2026-05-05 22:16 | 56.58733 | -113.83970 | 43224 ft | 422 kts | 357° |
| 2026-05-05 22:17 | 56.64570 | -113.84288 | 43218 ft | 422 kts | 357° |
| 2026-05-05 22:17 | 56.70431 | -113.84607 | 43220 ft | 420 kts | 357° |
| 2026-05-05 22:18 | 56.76284 | -113.84927 | 43210 ft | 420 kts | 357° |
| 2026-05-05 22:18 | 56.82145 | -113.85249 | 43212 ft | 422 kts | 357° |
| 2026-05-05 22:19 | 56.88026 | -113.85573 | 43203 ft | 423 kts | 357° |
| 2026-05-05 22:19 | 56.93916 | -113.85898 | 43203 ft | 424 kts | 357° |
| 2026-05-05 22:20 | 56.99791 | -113.86223 | 43198 ft | 425 kts | 357° |
| 2026-05-05 22:20 | 57.05718 | -113.86554 | 43186 ft | 426 kts | 357° |
| 2026-05-05 22:21 | 57.11636 | -113.86882 | 43178 ft | 424 kts | 357° |
| 2026-05-05 22:21 | 57.17531 | -113.87213 | 43176 ft | 423 kts | 357° |
| 2026-05-05 22:22 | 57.23430 | -113.87544 | 43169 ft | 422 kts | 357° |
| 2026-05-05 22:22 | 57.29261 | -113.87872 | 43168 ft | 421 kts | 357° |
| 2026-05-05 22:23 | 57.35121 | -113.88202 | 43168 ft | 421 kts | 356° |
| 2026-05-05 22:23 | 57.40990 | -113.88536 | 43170 ft | 423 kts | 356° |
| 2026-05-05 22:24 | 57.46902 | -113.88871 | 43170 ft | 425 kts | 356° |
| 2026-05-05 22:24 | 57.52830 | -113.89210 | 43174 ft | 427 kts | 356° |
| 2026-05-05 22:25 | 57.58762 | -113.89548 | 43176 ft | 426 kts | 356° |
| 2026-05-05 22:25 | 57.64669 | -113.89888 | 43165 ft | 424 kts | 356° |
| 2026-05-05 22:26 | 57.70556 | -113.90226 | 43161 ft | 422 kts | 356° |
| 2026-05-05 22:26 | 57.76386 | -113.90564 | 43163 ft | 421 kts | 356° |
| 2026-05-05 22:27 | 57.82253 | -113.90903 | 43166 ft | 422 kts | 356° |
| 2026-05-05 22:27 | 57.88139 | -113.91246 | 43168 ft | 424 kts | 356° |
| 2026-05-05 22:28 | 57.94045 | -113.91590 | 43169 ft | 425 kts | 356° |
| 2026-05-05 22:28 | 57.99970 | -113.91937 | 43171 ft | 426 kts | 356° |
| 2026-05-05 22:29 | 58.05924 | -113.92287 | 43185 ft | 429 kts | 356° |
| 2026-05-05 22:29 | 58.11868 | -113.92637 | 43188 ft | 430 kts | 356° |
| 2026-05-05 22:30 | 58.17837 | -113.92989 | 43187 ft | 428 kts | 356° |
| 2026-05-05 22:30 | 58.23778 | -113.93341 | 43177 ft | 425 kts | 356° |
| 2026-05-05 22:31 | 58.29683 | -113.93693 | 43183 ft | 423 kts | 356° |
| 2026-05-05 22:31 | 58.35580 | -113.94046 | 43186 ft | 425 kts | 356° |
| 2026-05-05 22:32 | 58.41472 | -113.94398 | 43185 ft | 427 kts | 356° |
| 2026-05-05 22:32 | 58.47417 | -113.94756 | 43187 ft | 428 kts | 356° |
| 2026-05-05 22:33 | 58.53394 | -113.95116 | 43187 ft | 430 kts | 356° |
| 2026-05-05 22:33 | 58.59389 | -113.95479 | 43195 ft | 431 kts | 356° |
| 2026-05-05 22:34 | 58.65364 | -113.95841 | 43187 ft | 428 kts | 356° |
| 2026-05-05 22:34 | 58.71304 | -113.96204 | 43185 ft | 426 kts | 356° |
| 2026-05-05 22:35 | 58.77229 | -113.96567 | 43186 ft | 427 kts | 356° |
| 2026-05-05 22:35 | 58.83194 | -113.96932 | 43184 ft | 430 kts | 356° |
| 2026-05-05 22:36 | 58.89159 | -113.97300 | 43187 ft | 433 kts | 356° |
| 2026-05-05 22:36 | 58.95177 | -113.97671 | 43189 ft | 432 kts | 356° |
| 2026-05-05 22:37 | 59.01184 | -113.98043 | 43175 ft | 430 kts | 356° |
| 2026-05-05 22:37 | 59.07153 | -113.98415 | 43172 ft | 427 kts | 356° |
| 2026-05-05 22:38 | 59.12983 | -113.98776 | 43150 ft | 413 kts | 356° |
| 2026-05-05 22:38 | 59.18667 | -113.99134 | 43160 ft | 406 kts | 356° |
| 2026-05-05 22:39 | 59.24320 | -113.99492 | 43160 ft | 411 kts | 356° |
| 2026-05-05 22:39 | 59.30107 | -113.99856 | 43171 ft | 417 kts | 356° |
| 2026-05-05 22:40 | 59.35879 | -114.00219 | 43161 ft | 416 kts | 356° |
| 2026-05-05 22:40 | 59.41654 | -114.00587 | 43160 ft | 412 kts | 356° |
| 2026-05-05 22:41 | 59.47338 | -114.00949 | 43187 ft | 410 kts | 356° |
| 2026-05-05 22:41 | 59.53074 | -114.01316 | 43164 ft | 414 kts | 356° |
| 2026-05-05 22:42 | 59.58867 | -114.01687 | 43170 ft | 418 kts | 356° |
| 2026-05-05 22:42 | 59.64670 | -114.02060 | 43171 ft | 419 kts | 356° |
| 2026-05-05 22:43 | 59.69520 | -114.02373 | 43166 ft | 417 kts | 356° |
| 2026-05-05 22:43 | 59.75300 | -114.02748 | 43153 ft | 414 kts | 356° |
| 2026-05-05 22:44 | 59.81036 | -114.03120 | 43161 ft | 412 kts | 356° |
| 2026-05-05 22:44 | 59.86747 | -114.03494 | 43155 ft | 412 kts | 356° |
| 2026-05-05 22:45 | 59.92523 | -114.03872 | 43158 ft | 414 kts | 356° |
| 2026-05-05 22:45 | 59.98275 | -114.04249 | 43159 ft | 416 kts | 356° |
| 2026-05-05 22:46 | 60.04037 | -114.04626 | 43152 ft | 406 kts | 356° |
| 2026-05-05 22:46 | 60.09557 | -114.04991 | 43148 ft | 387 kts | 355° |
| 2026-05-05 22:47 | 60.14896 | -114.05349 | 43150 ft | 384 kts | 355° |
| 2026-05-05 22:47 | 60.15769 | -114.05408 | 43151 ft | 386 kts | 355° |